sensor_id;sensor_type;location;lat;lon;timestamp;pressure;altitude;pressure_sealevel;temperature;humidity
71857;BME280;63344;46.980;28.882;2024-03-29T00:02:29;100035.03;;;8.16;69.09
71857;BME280;63344;46.980;28.882;2024-03-29T00:05:04;100027.66;;;8.01;69.15
71857;BME280;63344;46.980;28.882;2024-03-29T00:08:02;100021.13;;;8.11;69.08
71857;BME280;63344;46.980;28.882;2024-03-29T00:10:52;100013.38;;;8.52;68.39
71857;BME280;63344;46.980;28.882;2024-03-29T00:16:55;100009.22;;;9.09;66.39
71857;BME280;63344;46.980;28.882;2024-03-29T00:19:34;100021.53;;;9.51;65.36
71857;BME280;63344;46.980;28.882;2024-03-29T00:22:20;100020.44;;;9.76;64.34
71857;BME280;63344;46.980;28.882;2024-03-29T00:25:02;100009.81;;;9.96;63.45
71857;BME280;63344;46.980;28.882;2024-03-29T00:27:49;100008.31;;;9.70;64.09
71857;BME280;63344;46.980;28.882;2024-03-29T00:30:38;100020.41;;;9.16;65.67
71857;BME280;63344;46.980;28.882;2024-03-29T00:33:16;100019.72;;;8.90;66.62
71857;BME280;63344;46.980;28.882;2024-03-29T00:35:58;100020.72;;;8.88;66.45
71857;BME280;63344;46.980;28.882;2024-03-29T00:38:29;100018.78;;;9.13;66.17
71857;BME280;63344;46.980;28.882;2024-03-29T00:41:15;100027.38;;;9.18;66.46
71857;BME280;63344;46.980;28.882;2024-03-29T00:44:09;100019.03;;;9.07;67.00
71857;BME280;63344;46.980;28.882;2024-03-29T00:46:45;100016.38;;;9.07;66.53
71857;BME280;63344;46.980;28.882;2024-03-29T00:49:28;100018.59;;;9.39;65.69
71857;BME280;63344;46.980;28.882;2024-03-29T00:52:27;100015.41;;;9.70;64.71
71857;BME280;63344;46.980;28.882;2024-03-29T00:55:24;100008.19;;;9.92;63.76
71857;BME280;63344;46.980;28.882;2024-03-29T00:58:08;100007.84;;;10.00;63.06
71857;BME280;63344;46.980;28.882;2024-03-29T01:00:42;100020.75;;;10.08;63.00
71857;BME280;63344;46.980;28.882;2024-03-29T01:03:31;99987.50;;;10.01;62.72
71857;BME280;63344;46.980;28.882;2024-03-29T01:06:24;99999.25;;;10.14;62.73
71857;BME280;63344;46.980;28.882;2024-03-29T01:08:52;100000.81;;;10.18;62.29
71857;BME280;63344;46.980;28.882;2024-03-29T01:11:26;100000.53;;;10.24;61.82
71857;BME280;63344;46.980;28.882;2024-03-29T01:14:00;100000.25;;;10.11;62.63
71857;BME280;63344;46.980;28.882;2024-03-29T01:16:34;99997.81;;;9.69;64.07
71857;BME280;63344;46.980;28.882;2024-03-29T01:19:31;99982.63;;;9.52;64.18
71857;BME280;63344;46.980;28.882;2024-03-29T01:22:32;99993.97;;;9.55;64.27
71857;BME280;63344;46.980;28.882;2024-03-29T01:25:25;99993.84;;;9.59;63.93
71857;BME280;63344;46.980;28.882;2024-03-29T01:28:17;99995.84;;;9.53;64.71
71857;BME280;63344;46.980;28.882;2024-03-29T01:31:19;99979.81;;;9.36;65.25
71857;BME280;63344;46.980;28.882;2024-03-29T01:34:17;99988.03;;;9.30;65.69
71857;BME280;63344;46.980;28.882;2024-03-29T01:36:50;99992.59;;;9.26;66.08
71857;BME280;63344;46.980;28.882;2024-03-29T01:39:54;99996.03;;;9.28;65.89
71857;BME280;63344;46.980;28.882;2024-03-29T01:42:40;100001.53;;;9.44;64.91
71857;BME280;63344;46.980;28.882;2024-03-29T01:45:08;99985.97;;;9.57;64.38
71857;BME280;63344;46.980;28.882;2024-03-29T01:48:24;100002.53;;;9.81;63.47
71857;BME280;63344;46.980;28.882;2024-03-29T01:54:31;100006.41;;;9.74;63.58
71857;BME280;63344;46.980;28.882;2024-03-29T01:57:09;100013.50;;;9.73;63.35
71857;BME280;63344;46.980;28.882;2024-03-29T02:00:11;100009.31;;;9.68;63.24
71857;BME280;63344;46.980;28.882;2024-03-29T02:02:43;100009.59;;;9.62;63.85
71857;BME280;63344;46.980;28.882;2024-03-29T02:05:36;99989.75;;;9.31;64.41
71857;BME280;63344;46.980;28.882;2024-03-29T02:08:59;99996.19;;;9.25;64.69
71857;BME280;63344;46.980;28.882;2024-03-29T02:11:42;99993.06;;;9.15;65.30
71857;BME280;63344;46.980;28.882;2024-03-29T02:14:14;99992.50;;;9.09;65.82
71857;BME280;63344;46.980;28.882;2024-03-29T02:16:57;99996.84;;;9.10;65.80
71857;BME280;63344;46.980;28.882;2024-03-29T02:20:03;99993.13;;;9.14;65.94
71857;BME280;63344;46.980;28.882;2024-03-29T02:22:51;99994.00;;;9.14;65.51
71857;BME280;63344;46.980;28.882;2024-03-29T02:25:26;99978.50;;;9.05;65.66
71857;BME280;63344;46.980;28.882;2024-03-29T02:28:22;100000.88;;;9.18;66.26
71857;BME280;63344;46.980;28.882;2024-03-29T02:30:57;99973.69;;;9.15;66.20
71857;BME280;63344;46.980;28.882;2024-03-29T02:33:50;99996.56;;;9.36;65.40
71857;BME280;63344;46.980;28.882;2024-03-29T02:36:28;99980.75;;;9.35;65.24
71857;BME280;63344;46.980;28.882;2024-03-29T02:39:16;99958.81;;;9.31;65.07
71857;BME280;63344;46.980;28.882;2024-03-29T02:41:56;99982.63;;;9.52;65.42
71857;BME280;63344;46.980;28.882;2024-03-29T02:44:49;99993.84;;;9.59;65.76
71857;BME280;63344;46.980;28.882;2024-03-29T02:47:29;99987.81;;;9.55;65.44
71857;BME280;63344;46.980;28.882;2024-03-29T02:50:35;100001.72;;;9.60;65.93
71857;BME280;63344;46.980;28.882;2024-03-29T02:53:22;100000.72;;;9.63;65.95
71857;BME280;63344;46.980;28.882;2024-03-29T02:56:14;99995.44;;;9.63;65.64
71857;BME280;63344;46.980;28.882;2024-03-29T03:02:27;99971.22;;;9.31;66.08
71857;BME280;63344;46.980;28.882;2024-03-29T03:05:22;99985.97;;;9.16;66.10
71857;BME280;63344;46.980;28.882;2024-03-29T03:08:06;99977.78;;;9.02;66.63
71857;BME280;63344;46.980;28.882;2024-03-29T03:11:23;99974.13;;;8.84;66.84
71857;BME280;63344;46.980;28.882;2024-03-29T03:14:03;99949.28;;;8.66;67.87
71857;BME280;63344;46.980;28.882;2024-03-29T03:16:40;99996.78;;;8.91;67.84
71857;BME280;63344;46.980;28.882;2024-03-29T03:19:28;100001.06;;;8.93;68.17
71857;BME280;63344;46.980;28.882;2024-03-29T03:22:19;100006.31;;;8.95;68.34
71857;BME280;63344;46.980;28.882;2024-03-29T03:25:13;100005.84;;;9.06;68.69
71857;BME280;63344;46.980;28.882;2024-03-29T03:28:02;100013.84;;;9.04;68.33
71857;BME280;63344;46.980;28.882;2024-03-29T03:31:04;100007.38;;;8.91;68.32
71857;BME280;63344;46.980;28.882;2024-03-29T03:33:58;100004.19;;;8.83;68.90
71857;BME280;63344;46.980;28.882;2024-03-29T03:36:40;99991.31;;;8.73;68.89
71857;BME280;63344;46.980;28.882;2024-03-29T03:39:16;100007.22;;;8.94;69.14
71857;BME280;63344;46.980;28.882;2024-03-29T03:41:54;99991.47;;;8.91;69.16
71857;BME280;63344;46.980;28.882;2024-03-29T03:44:34;99970.34;;;8.89;68.96
71857;BME280;63344;46.980;28.882;2024-03-29T03:47:39;100002.72;;;9.16;68.87
71857;BME280;63344;46.980;28.882;2024-03-29T03:50:29;100007.69;;;9.24;68.79
71857;BME280;63344;46.980;28.882;2024-03-29T03:53:22;99992.75;;;9.23;69.02
71857;BME280;63344;46.980;28.882;2024-03-29T03:56:12;99987.56;;;9.20;69.24
71857;BME280;63344;46.980;28.882;2024-03-29T03:58:52;99994.13;;;9.11;69.30
71857;BME280;63344;46.980;28.882;2024-03-29T04:01:47;99988.56;;;9.17;69.19
71857;BME280;63344;46.980;28.882;2024-03-29T04:04:24;99978.00;;;9.36;69.45
71857;BME280;63344;46.980;28.882;2024-03-29T04:07:20;99987.22;;;9.48;68.95
71857;BME280;63344;46.980;28.882;2024-03-29T04:09:53;99994.97;;;9.53;68.58
71857;BME280;63344;46.980;28.882;2024-03-29T04:12:32;99993.13;;;9.55;68.56
71857;BME280;63344;46.980;28.882;2024-03-29T04:15:36;99987.78;;;9.75;68.66
71857;BME280;63344;46.980;28.882;2024-03-29T04:18:06;99960.03;;;9.64;68.52
71857;BME280;63344;46.980;28.882;2024-03-29T04:24:23;99976.44;;;9.32;69.16
71857;BME280;63344;46.980;28.882;2024-03-29T04:27:30;99981.66;;;9.34;69.67
71857;BME280;63344;46.980;28.882;2024-03-29T04:30:26;99978.56;;;9.45;70.01
71857;BME280;63344;46.980;28.882;2024-03-29T04:33:07;99978.50;;;9.65;69.39
71857;BME280;63344;46.980;28.882;2024-03-29T04:36:10;99986.97;;;9.73;69.27
71857;BME280;63344;46.980;28.882;2024-03-29T04:38:45;99995.28;;;9.66;69.37
71857;BME280;63344;46.980;28.882;2024-03-29T04:41:34;99995.88;;;9.52;69.73
71857;BME280;63344;46.980;28.882;2024-03-29T04:44:41;100012.47;;;9.57;70.36
71857;BME280;63344;46.980;28.882;2024-03-29T04:47:32;100017.56;;;9.62;70.53
71857;BME280;63344;46.980;28.882;2024-03-29T04:50:11;100007.25;;;9.74;69.67
71857;BME280;63344;46.980;28.882;2024-03-29T04:52:49;100011.72;;;9.93;69.52
71857;BME280;63344;46.980;28.882;2024-03-29T05:16:23;100005.47;;;10.87;65.63
71857;BME280;63344;46.980;28.882;2024-03-29T05:58:56;99988.59;;;13.74;57.76
71857;BME280;63344;46.980;28.882;2024-03-29T06:18:11;99978.88;;;14.29;54.36
71857;BME280;63344;46.980;28.882;2024-03-29T06:21:34;99971.75;;;14.15;54.79
71857;BME280;63344;46.980;28.882;2024-03-29T06:32:22;99972.22;;;14.22;54.74
71857;BME280;63344;46.980;28.882;2024-03-29T06:35:42;99980.38;;;14.33;54.75
71857;BME280;63344;46.980;28.882;2024-03-29T06:39:51;99964.72;;;14.42;54.31
71857;BME280;63344;46.980;28.882;2024-03-29T06:43:09;99972.00;;;14.67;52.85
71857;BME280;63344;46.980;28.882;2024-03-29T06:46:39;99936.41;;;14.66;52.58
71857;BME280;63344;46.980;28.882;2024-03-29T07:02:24;99887.19;;;16.69;49.77
71857;BME280;63344;46.980;28.882;2024-03-29T07:18:01;99858.97;;;16.88;47.88
71857;BME280;63344;46.980;28.882;2024-03-29T07:29:56;99836.06;;;17.29;46.45
71857;BME280;63344;46.980;28.882;2024-03-29T07:33:24;99811.19;;;17.49;45.58
71857;BME280;63344;46.980;28.882;2024-03-29T07:36:47;99793.19;;;17.61;45.98
71857;BME280;63344;46.980;28.882;2024-03-29T07:40:29;99846.38;;;17.79;46.19
71857;BME280;63344;46.980;28.882;2024-03-29T07:44:03;99846.63;;;17.98;46.35
71857;BME280;63344;46.980;28.882;2024-03-29T07:47:26;99846.09;;;18.16;45.08
71857;BME280;63344;46.980;28.882;2024-03-29T07:51:04;99862.00;;;18.40;44.54
71857;BME280;63344;46.980;28.882;2024-03-29T07:54:19;99861.00;;;18.41;44.45
71857;BME280;63344;46.980;28.882;2024-03-29T07:57:45;99881.56;;;18.63;44.72
71857;BME280;63344;46.980;28.882;2024-03-29T08:01:23;99887.63;;;18.87;44.04
71857;BME280;63344;46.980;28.882;2024-03-29T09:46:29;100094.66;;;28.25;18.54
71857;BME280;63344;46.980;28.882;2024-03-29T10:02:44;100127.66;;;29.19;19.32
71857;BME280;63344;46.980;28.882;2024-03-29T10:28:08;100170.31;;;28.84;21.90
71857;BME280;63344;46.980;28.882;2024-03-29T12:01:50;100277.84;;;22.61;25.79
71857;BME280;63344;46.980;28.882;2024-03-29T12:05:28;100287.53;;;22.44;25.59
71857;BME280;63344;46.980;28.882;2024-03-29T12:29:27;100333.31;;;23.04;25.81
71857;BME280;63344;46.980;28.882;2024-03-29T12:32:18;100310.00;;;23.87;24.77
71857;BME280;63344;46.980;28.882;2024-03-29T12:36:12;100310.69;;;23.61;23.51
71857;BME280;63344;46.980;28.882;2024-03-29T13:23:06;100380.97;;;23.82;21.31
71857;BME280;63344;46.980;28.882;2024-03-29T14:10:43;100410.38;;;20.25;23.60
71857;BME280;63344;46.980;28.882;2024-03-29T14:54:24;100440.50;;;19.64;23.20
71857;BME280;63344;46.980;28.882;2024-03-29T16:11:49;100533.66;;;17.59;27.59
71857;BME280;63344;46.980;28.882;2024-03-29T19:04:32;100700.16;;;11.45;40.89
71857;BME280;63344;46.980;28.882;2024-03-29T19:33:42;100738.28;;;10.27;46.04
71857;BME280;63344;46.980;28.882;2024-03-29T19:37:29;100729.06;;;10.12;46.12
71857;BME280;63344;46.980;28.882;2024-03-29T21:05:09;100761.38;;;7.90;55.33
71857;BME280;63344;46.980;28.882;2024-03-29T21:08:52;100758.81;;;7.87;54.78
71857;BME280;63344;46.980;28.882;2024-03-29T21:14:57;100750.72;;;7.93;54.28
71857;BME280;63344;46.980;28.882;2024-03-29T21:17:51;100730.63;;;7.86;54.61
71857;BME280;63344;46.980;28.882;2024-03-29T21:20:42;100755.00;;;7.99;54.64
71857;BME280;63344;46.980;28.882;2024-03-29T21:23:39;100762.94;;;7.99;54.70
71857;BME280;63344;46.980;28.882;2024-03-29T21:26:27;100779.94;;;7.89;56.23
71857;BME280;63344;46.980;28.882;2024-03-29T21:29:23;100789.75;;;7.84;55.51
71857;BME280;63344;46.980;28.882;2024-03-29T21:32:24;100801.13;;;7.87;54.81
71857;BME280;63344;46.980;28.882;2024-03-29T21:35:02;100787.06;;;7.85;54.33
71857;BME280;63344;46.980;28.882;2024-03-29T21:41:51;100797.72;;;8.16;54.55
71857;BME280;63344;46.980;28.882;2024-03-29T21:44:51;100799.06;;;7.98;55.70
71857;BME280;63344;46.980;28.882;2024-03-29T21:47:53;100813.84;;;7.71;55.67
71857;BME280;63344;46.980;28.882;2024-03-29T21:50:47;100821.13;;;7.62;55.47
71857;BME280;63344;46.980;28.882;2024-03-29T21:53:44;100823.81;;;7.58;55.63
71857;BME280;63344;46.980;28.882;2024-03-29T22:07:47;100842.50;;;7.88;55.88
71857;BME280;63344;46.980;28.882;2024-03-29T22:10:49;100842.47;;;7.90;55.68
71857;BME280;63344;46.980;28.882;2024-03-29T22:17:01;100823.91;;;7.93;55.52
71857;BME280;63344;46.980;28.882;2024-03-29T22:19:43;100821.38;;;7.87;57.12
71857;BME280;63344;46.980;28.882;2024-03-29T22:22:40;100832.59;;;7.61;58.23
71857;BME280;63344;46.980;28.882;2024-03-29T22:25:18;100807.56;;;7.38;59.03
71857;BME280;63344;46.980;28.882;2024-03-29T22:27:49;100831.69;;;7.62;58.69
71857;BME280;63344;46.980;28.882;2024-03-29T22:30:28;100803.66;;;7.54;58.27
71857;BME280;63344;46.980;28.882;2024-03-29T22:33:41;100837.63;;;7.71;57.98
71857;BME280;63344;46.980;28.882;2024-03-29T22:36:55;100830.53;;;7.73;57.65
71857;BME280;63344;46.980;28.882;2024-03-29T22:40:17;100835.72;;;7.78;57.47
71857;BME280;63344;46.980;28.882;2024-03-29T22:47:02;100840.88;;;7.83;57.55
71857;BME280;63344;46.980;28.882;2024-03-29T22:49:53;100842.69;;;7.81;57.29
71857;BME280;63344;46.980;28.882;2024-03-29T22:52:39;100840.75;;;7.89;57.36
71857;BME280;63344;46.980;28.882;2024-03-29T22:55:30;100841.44;;;7.97;56.68
71857;BME280;63344;46.980;28.882;2024-03-29T23:05:50;100853.25;;;8.18;55.92
71857;BME280;63344;46.980;28.882;2024-03-29T23:08:41;100847.16;;;8.14;56.43
71857;BME280;63344;46.980;28.882;2024-03-29T23:19:02;100846.09;;;7.86;57.18
71857;BME280;63344;46.980;28.882;2024-03-29T23:22:15;100857.84;;;7.74;57.72
71857;BME280;63344;46.980;28.882;2024-03-29T23:25:27;100851.09;;;7.61;58.26
71857;BME280;63344;46.980;28.882;2024-03-29T23:28:26;100856.59;;;7.51;59.01
71857;BME280;63344;46.980;28.882;2024-03-29T23:31:06;100856.13;;;7.32;59.47
71857;BME280;63344;46.980;28.882;2024-03-29T23:33:34;100851.09;;;7.22;59.83
71857;BME280;63344;46.980;28.882;2024-03-29T23:36:12;100850.38;;;7.13;59.96
71857;BME280;63344;46.980;28.882;2024-03-29T23:38:55;100853.06;;;7.10;60.24
71857;BME280;63344;46.980;28.882;2024-03-29T23:41:32;100854.72;;;7.16;60.22
71857;BME280;63344;46.980;28.882;2024-03-29T23:44:16;100831.19;;;7.05;60.42
71857;BME280;63344;46.980;28.882;2024-03-29T23:46:46;100839.00;;;7.10;60.93
71857;BME280;63344;46.980;28.882;2024-03-29T23:49:35;100857.22;;;7.22;60.91
71857;BME280;63344;46.980;28.882;2024-03-29T23:58:58;100856.78;;;7.02;61.08
